createdAt,value
2018-06-27T00:00:38.327Z,22.18
2018-06-27T00:01:18.849Z,22.31
2018-06-27T00:01:59.372Z,22.33
2018-06-27T00:02:39.890Z,22.25
2018-06-27T00:03:20.415Z,22.31
2018-06-27T00:04:00.934Z,22.27
2018-06-27T00:04:41.454Z,22.14
2018-06-27T00:05:21.974Z,22.17
2018-06-27T00:06:02.490Z,22.17
2018-06-27T00:06:43.023Z,22.2
2018-06-27T00:07:23.555Z,22.14
2018-06-27T00:08:04.083Z,22.06
2018-06-27T00:08:44.613Z,21.99
2018-06-27T00:09:25.145Z,22.02
2018-06-27T00:10:05.669Z,22.1
2018-06-27T00:10:46.192Z,22.2
2018-06-27T00:11:26.730Z,22.21
2018-06-27T00:12:07.250Z,22.28
2018-06-27T00:12:47.769Z,22.2
2018-06-27T00:13:28.308Z,22.12
2018-06-27T00:14:08.832Z,22.2
2018-06-27T00:14:49.362Z,22.1
2018-06-27T00:15:29.879Z,21.99
2018-06-27T00:16:10.398Z,22.07
2018-06-27T00:16:50.927Z,22
2018-06-27T00:17:31.440Z,21.96
2018-06-27T00:18:11.972Z,21.98
2018-06-27T00:18:52.503Z,21.99
2018-06-27T00:19:33.033Z,22.05
2018-06-27T00:20:13.556Z,22.06
2018-06-27T00:20:54.079Z,22.05
2018-06-27T00:21:34.605Z,22
2018-06-27T00:22:15.119Z,21.99
2018-06-27T00:22:55.648Z,21.99
2018-06-27T00:23:36.169Z,22.05
2018-06-27T00:24:16.694Z,22.07
2018-06-27T00:24:57.227Z,22.09
2018-06-27T00:25:37.767Z,22.03
2018-06-27T00:26:18.275Z,22.02
2018-06-27T00:26:58.795Z,22
2018-06-27T00:27:39.320Z,22.06
2018-06-27T00:28:19.874Z,22.15
2018-06-27T00:29:00.367Z,22.09
2018-06-27T00:29:40.876Z,22.06
2018-06-27T00:30:21.412Z,21.99
2018-06-27T00:31:01.941Z,21.96
2018-06-27T00:31:42.458Z,21.86
2018-06-27T00:32:22.989Z,21.88
2018-06-27T00:33:03.531Z,21.96
2018-06-27T00:33:44.043Z,21.98
2018-06-27T00:34:24.565Z,21.9
2018-06-27T00:35:05.078Z,21.96
2018-06-27T00:35:45.747Z,21.96
2018-06-27T00:36:26.204Z,21.91
2018-06-27T00:37:06.723Z,21.96
2018-06-27T00:37:47.260Z,21.91
2018-06-27T00:38:27.781Z,21.86
2018-06-27T00:39:08.317Z,21.91
2018-06-27T00:39:48.848Z,21.91
2018-06-27T00:40:29.368Z,21.92
2018-06-27T00:41:09.892Z,21.96
2018-06-27T00:41:50.430Z,21.96
2018-06-27T00:42:30.977Z,21.82
2018-06-27T00:43:11.510Z,21.88
2018-06-27T00:43:52.033Z,21.94
2018-06-27T00:44:32.557Z,21.8
2018-06-27T00:45:13.083Z,21.79
2018-06-27T00:45:53.607Z,21.96
2018-06-27T00:46:34.128Z,21.94
2018-06-27T00:47:14.654Z,21.92
2018-06-27T00:47:55.171Z,21.91
2018-06-27T00:48:35.706Z,21.94
2018-06-27T00:49:16.257Z,21.92
2018-06-27T00:49:56.776Z,21.84
2018-06-27T00:50:37.314Z,21.92
2018-06-27T00:51:17.825Z,21.98
2018-06-27T00:51:58.339Z,21.99
2018-06-27T00:52:38.854Z,22.02
2018-06-27T00:53:19.382Z,22.05
2018-06-27T00:53:59.918Z,21.98
2018-06-27T00:54:40.455Z,22
2018-06-27T00:55:20.969Z,21.94
2018-06-27T00:56:01.490Z,21.94
2018-06-27T00:56:42.026Z,21.84
2018-06-27T00:57:22.528Z,21.84
2018-06-27T00:58:03.070Z,21.84
2018-06-27T00:58:43.607Z,21.82
2018-06-27T00:59:24.119Z,21.79
2018-06-27T01:00:04.633Z,21.83
2018-06-27T01:00:45.157Z,21.88
2018-06-27T01:01:25.672Z,21.77
2018-06-27T01:02:06.339Z,21.8
2018-06-27T01:02:46.873Z,21.96
2018-06-27T01:03:27.394Z,21.94
2018-06-27T01:04:07.914Z,21.92
2018-06-27T01:04:48.431Z,21.83
2018-06-27T01:05:28.955Z,21.84
2018-06-27T01:06:09.466Z,21.86
2018-06-27T01:06:50.004Z,21.88
2018-06-27T01:07:30.537Z,21.69
2018-06-27T01:08:11.055Z,21.61
2018-06-27T01:08:51.584Z,21.69
2018-06-27T01:09:32.107Z,21.69
2018-06-27T01:10:12.635Z,21.74
2018-06-27T01:10:53.156Z,21.8
2018-06-27T01:11:33.665Z,21.64
2018-06-27T01:12:14.184Z,21.62
2018-06-27T01:12:54.733Z,21.53
2018-06-27T01:13:35.254Z,21.52
2018-06-27T01:14:15.787Z,21.4
2018-06-27T01:14:56.301Z,21.52
2018-06-27T01:15:36.821Z,21.47
2018-06-27T01:16:17.342Z,21.34
2018-06-27T01:16:57.862Z,21.37
2018-06-27T01:17:38.373Z,21.34
2018-06-27T01:18:18.904Z,21.34
2018-06-27T01:18:59.418Z,21.35
2018-06-27T01:19:39.956Z,21.25
2018-06-27T01:20:20.464Z,21.32
2018-06-27T01:21:00.974Z,21.21
2018-06-27T01:21:41.506Z,21.22
2018-06-27T01:22:22.028Z,21.22
2018-06-27T01:23:02.542Z,21.25
2018-06-27T01:23:43.058Z,21.34
2018-06-27T01:24:23.582Z,21.32
2018-06-27T01:25:04.108Z,21.27
2018-06-27T01:25:44.620Z,21.32
2018-06-27T01:26:25.150Z,21.25
2018-06-27T01:27:05.662Z,21.31
2018-06-27T01:27:46.186Z,21.32
2018-06-27T01:29:24.046Z,21.29
2018-06-27T01:30:04.557Z,21.35
2018-06-27T01:30:45.083Z,21.29
2018-06-27T01:31:25.596Z,21.31
2018-06-27T01:32:06.109Z,21.35
2018-06-27T01:32:46.622Z,21.4
2018-06-27T01:33:27.181Z,21.37
2018-06-27T01:34:07.687Z,21.38
2018-06-27T01:34:48.215Z,21.46
2018-06-27T01:35:28.736Z,21.44
2018-06-27T01:36:09.247Z,21.31
2018-06-27T01:36:49.791Z,21.29
2018-06-27T01:37:30.318Z,21.24
2018-06-27T01:38:10.840Z,21.32
2018-06-27T01:38:51.356Z,21.34
2018-06-27T01:39:31.876Z,21.28
2018-06-27T01:40:12.391Z,21.32
2018-06-27T01:40:52.913Z,21.32
2018-06-27T01:41:33.452Z,21.32
2018-06-27T01:42:13.976Z,21.27
2018-06-27T01:42:54.523Z,21.17
2018-06-27T01:43:35.039Z,21.24
2018-06-27T01:44:15.555Z,21.24
2018-06-27T01:44:56.073Z,21.31
2018-06-27T01:45:36.605Z,21.31
2018-06-27T01:46:17.132Z,21.25
2018-06-27T01:46:57.644Z,21.27
2018-06-27T01:47:38.207Z,21.25
2018-06-27T01:48:18.753Z,21.17
2018-06-27T01:48:59.326Z,21.22
2018-06-27T01:49:39.813Z,21.29
2018-06-27T01:50:20.342Z,21.17
2018-06-27T01:51:00.898Z,21.19
2018-06-27T01:51:41.376Z,21.21
2018-06-27T01:52:21.869Z,21.17
2018-06-27T01:53:02.391Z,21.13
2018-06-27T01:53:42.895Z,21.21
2018-06-27T01:54:23.371Z,21.16
2018-06-27T01:55:03.902Z,21.24
2018-06-27T01:55:44.366Z,21.17
2018-06-27T01:56:24.901Z,21.21
2018-06-27T01:57:05.415Z,21.27
2018-06-27T01:57:45.937Z,21.19
2018-06-27T01:58:26.455Z,21.14
2018-06-27T01:59:06.965Z,21.19
2018-06-27T01:59:47.471Z,21.27
2018-06-27T02:00:28.001Z,21.16
2018-06-27T02:01:08.529Z,21.16
2018-06-27T02:01:49.044Z,21.17
2018-06-27T02:02:29.685Z,21.16
2018-06-27T02:03:10.200Z,21.17
2018-06-27T02:03:50.697Z,21.13
2018-06-27T02:04:31.211Z,21.09
2018-06-27T02:05:11.745Z,21.04
2018-06-27T02:05:52.269Z,21.03
2018-06-27T02:06:32.789Z,21.07
2018-06-27T02:07:13.310Z,21.12
2018-06-27T02:07:53.827Z,21.07
2018-06-27T02:08:34.343Z,21.1
2018-06-27T02:09:14.876Z,20.99
2018-06-27T02:09:55.395Z,20.99
2018-06-27T02:10:35.911Z,21.01
2018-06-27T02:11:16.425Z,20.97
2018-06-27T02:11:56.975Z,21.07
2018-06-27T02:12:37.488Z,21.09
2018-06-27T02:13:18.011Z,21.04
2018-06-27T02:13:58.547Z,21.09
2018-06-27T02:14:39.065Z,21.01
2018-06-27T02:15:19.615Z,20.98
2018-06-27T02:16:00.109Z,20.94
2018-06-27T02:16:40.595Z,20.84
2018-06-27T02:17:21.104Z,20.91
2018-06-27T02:18:01.589Z,20.99
2018-06-27T02:18:42.113Z,21.09
2018-06-27T02:19:22.603Z,21.13
2018-06-27T02:20:03.113Z,21.06
2018-06-27T02:20:43.630Z,20.99
2018-06-27T02:21:24.146Z,21.1
2018-06-27T02:22:04.675Z,21.07
2018-06-27T02:22:45.188Z,21.01
2018-06-27T02:23:25.705Z,21.01
2018-06-27T02:24:06.235Z,21.06
2018-06-27T02:24:46.758Z,21.12
2018-06-27T02:25:27.275Z,21.1
2018-06-27T02:26:07.835Z,21.04
2018-06-27T02:26:48.352Z,21.03
2018-06-27T02:27:28.902Z,21.12
2018-06-27T02:28:09.372Z,20.98
2018-06-27T02:28:49.899Z,20.95
2018-06-27T02:29:30.430Z,20.87
2018-06-27T02:30:10.881Z,20.94
2018-06-27T02:30:51.379Z,20.84
2018-06-27T02:31:31.887Z,20.8
2018-06-27T02:32:12.414Z,20.79
2018-06-27T02:32:52.931Z,20.8
2018-06-27T02:33:33.444Z,20.89
2018-06-27T02:34:13.956Z,20.84
2018-06-27T02:34:54.498Z,20.79
2018-06-27T02:35:35.019Z,20.72
2018-06-27T02:36:15.552Z,20.66
2018-06-27T02:36:56.075Z,20.58
2018-06-27T02:37:36.629Z,20.67
2018-06-27T02:38:17.150Z,20.69
2018-06-27T02:38:57.674Z,20.72
2018-06-27T02:39:38.196Z,20.69
2018-06-27T02:40:18.719Z,20.69
2018-06-27T02:40:59.248Z,20.72
2018-06-27T02:41:39.746Z,20.74
2018-06-27T02:42:20.286Z,20.67
2018-06-27T02:43:00.810Z,20.69
2018-06-27T02:43:41.331Z,20.72
2018-06-27T02:44:21.871Z,20.82
2018-06-27T02:45:02.376Z,20.79
2018-06-27T02:45:42.895Z,20.76
2018-06-27T02:46:23.424Z,20.77
2018-06-27T02:47:03.960Z,20.7
2018-06-27T02:47:44.500Z,20.74
2018-06-27T02:48:25.030Z,20.69
2018-06-27T02:49:05.527Z,20.72
2018-06-27T02:49:46.059Z,20.66
2018-06-27T02:50:26.578Z,20.67
2018-06-27T02:51:07.091Z,20.58
2018-06-27T02:51:47.593Z,20.73
2018-06-27T02:52:28.101Z,20.72
2018-06-27T02:53:08.625Z,20.64
2018-06-27T02:53:49.151Z,20.72
2018-06-27T02:54:29.693Z,20.7
2018-06-27T02:55:10.219Z,20.76
2018-06-27T02:55:50.750Z,20.73
2018-06-27T02:56:31.267Z,20.72
2018-06-27T02:57:11.752Z,20.67
2018-06-27T02:57:52.295Z,20.61
2018-06-27T02:58:32.773Z,20.66
2018-06-27T02:59:13.269Z,20.64
2018-06-27T02:59:53.768Z,20.62
2018-06-27T03:00:34.287Z,20.66
2018-06-27T03:01:14.808Z,20.73
2018-06-27T03:01:55.319Z,20.73
2018-06-27T03:02:35.963Z,20.73
2018-06-27T03:03:16.362Z,20.55
2018-06-27T03:03:56.887Z,20.62
2018-06-27T03:04:37.414Z,20.57
2018-06-27T03:05:17.937Z,20.5
2018-06-27T03:05:58.445Z,20.5
2018-06-27T03:06:38.970Z,20.61
2018-06-27T03:07:19.480Z,20.43
2018-06-27T03:08:00.008Z,20.48
2018-06-27T03:08:40.518Z,20.36
2018-06-27T03:09:21.044Z,20.48
2018-06-27T03:10:01.562Z,20.51
2018-06-27T03:10:42.106Z,20.41
2018-06-27T03:11:22.602Z,20.42
2018-06-27T03:12:03.127Z,20.39
2018-06-27T03:12:43.632Z,20.43
2018-06-27T03:13:24.142Z,20.41
2018-06-27T03:14:04.672Z,20.36
2018-06-27T03:14:45.191Z,20.36
2018-06-27T03:15:25.695Z,20.43
2018-06-27T03:16:06.217Z,20.33
2018-06-27T03:16:46.743Z,20.24
2018-06-27T03:17:27.260Z,20.24
2018-06-27T03:18:07.799Z,20.28
2018-06-27T03:18:48.323Z,20.28
2018-06-27T03:19:28.844Z,20.16
2018-06-27T03:20:09.362Z,20.23
2018-06-27T03:20:49.893Z,20.1
2018-06-27T03:21:30.408Z,20.01
2018-06-27T03:22:10.908Z,19.96
2018-06-27T03:22:51.428Z,19.92
2018-06-27T03:23:31.945Z,19.84
2018-06-27T03:24:12.465Z,19.88
2018-06-27T03:24:52.988Z,19.99
2018-06-27T03:25:33.509Z,19.94
2018-06-27T03:26:14.041Z,19.99
2018-06-27T03:26:54.555Z,19.98
2018-06-27T03:27:35.084Z,19.95
2018-06-27T03:28:15.622Z,19.91
2018-06-27T03:28:56.144Z,19.87
2018-06-27T03:29:36.665Z,19.81
2018-06-27T03:30:17.194Z,19.86
2018-06-27T03:30:57.702Z,19.86
2018-06-27T03:31:38.255Z,19.71
2018-06-27T03:32:18.744Z,19.87
2018-06-27T03:32:59.187Z,19.86
2018-06-27T03:33:39.756Z,19.8
2018-06-27T03:34:20.241Z,19.73
2018-06-27T03:35:00.768Z,19.86
2018-06-27T03:35:41.299Z,19.99
2018-06-27T03:36:21.924Z,19.92
2018-06-27T03:37:02.425Z,19.84
2018-06-27T03:37:42.913Z,19.83
2018-06-27T03:38:23.379Z,19.94
2018-06-27T03:39:03.894Z,19.91
2018-06-27T03:39:44.414Z,19.94
2018-06-27T03:40:24.875Z,20.01
2018-06-27T03:41:05.387Z,19.84
2018-06-27T03:41:45.902Z,19.84
2018-06-27T03:42:26.440Z,19.87
2018-06-27T03:43:06.984Z,19.83
2018-06-27T03:43:47.463Z,19.98
2018-06-27T03:44:27.996Z,19.98
2018-06-27T03:45:08.482Z,19.96
2018-06-27T03:45:49.003Z,20.08
2018-06-27T03:46:29.511Z,20.16
2018-06-27T03:47:09.950Z,20.13
2018-06-27T03:47:50.483Z,20.13
2018-06-27T03:48:31.019Z,20.24
2018-06-27T03:49:11.541Z,20.33
2018-06-27T03:49:52.060Z,20.41
2018-06-27T03:50:32.673Z,20.39
2018-06-27T03:51:13.086Z,20.52
2018-06-27T03:51:53.606Z,20.41
2018-06-27T03:52:34.128Z,20.39
2018-06-27T03:53:14.653Z,20.38
2018-06-27T03:53:55.186Z,20.39
2018-06-27T03:54:35.701Z,20.39
2018-06-27T03:55:16.215Z,20.35
2018-06-27T03:55:56.740Z,20.23
2018-06-27T03:56:37.265Z,20.21
2018-06-27T03:57:17.789Z,20.31
2018-06-27T03:57:58.305Z,20.14
2018-06-27T03:58:38.825Z,20.32
2018-06-27T03:59:19.381Z,20.26
2018-06-27T03:59:59.945Z,20.41
2018-06-27T04:00:40.382Z,20.35
2018-06-27T04:01:20.900Z,20.24
2018-06-27T04:02:01.395Z,20.28
2018-06-27T04:02:41.911Z,20.21
2018-06-27T04:03:22.417Z,20.18
2018-06-27T04:04:02.962Z,20.32
2018-06-27T04:04:43.456Z,20.32
2018-06-27T04:05:23.992Z,20.29
2018-06-27T04:06:04.492Z,20.32
2018-06-27T04:06:45.021Z,20.39
2018-06-27T04:07:25.540Z,20.5
2018-06-27T04:08:06.082Z,20.57
2018-06-27T04:08:46.610Z,20.54
2018-06-27T04:09:27.112Z,20.73
2018-06-27T04:10:07.660Z,20.69
2018-06-27T04:10:48.757Z,20.7
2018-06-27T04:11:29.270Z,20.73
2018-06-27T04:12:09.804Z,20.73
2018-06-27T04:12:50.432Z,20.73
2018-06-27T04:13:30.955Z,20.72
2018-06-27T04:14:11.362Z,20.69
2018-06-27T04:14:51.876Z,20.7
2018-06-27T04:15:32.394Z,20.66
2018-06-27T04:16:12.920Z,20.66
2018-06-27T04:16:53.459Z,20.57
2018-06-27T04:17:33.977Z,20.57
2018-06-27T04:18:14.526Z,20.58
2018-06-27T04:18:55.063Z,20.54
2018-06-27T04:19:35.573Z,20.5
2018-06-27T04:20:16.203Z,20.5
2018-06-27T04:20:56.622Z,20.52
2018-06-27T04:21:37.134Z,20.62
2018-06-27T04:22:17.659Z,20.74
2018-06-27T04:22:58.201Z,20.72
2018-06-27T04:23:38.736Z,20.55
2018-06-27T04:24:19.267Z,20.47
2018-06-27T04:24:59.798Z,20.5
2018-06-27T04:25:40.341Z,20.41
2018-06-27T04:26:20.843Z,20.47
2018-06-27T04:27:01.301Z,20.5
2018-06-27T04:27:41.852Z,20.42
2018-06-27T04:28:22.326Z,20.52
2018-06-27T04:29:02.894Z,20.42
2018-06-27T04:29:43.370Z,20.42
2018-06-27T04:30:23.853Z,20.51
2018-06-27T04:31:04.349Z,20.51
2018-06-27T04:31:44.929Z,20.47
2018-06-27T04:32:25.435Z,20.58
2018-06-27T04:33:05.953Z,20.62
2018-06-27T04:33:46.481Z,20.59
2018-06-27T04:34:27.016Z,20.41
2018-06-27T04:35:07.529Z,20.48
2018-06-27T04:35:48.056Z,20.48
2018-06-27T04:36:28.577Z,20.43
2018-06-27T04:37:09.114Z,20.33
2018-06-27T04:37:49.638Z,20.52
2018-06-27T04:38:30.165Z,20.41
2018-06-27T04:39:10.673Z,20.42
2018-06-27T04:39:51.199Z,20.57
2018-06-27T04:40:31.728Z,20.61
2018-06-27T04:41:12.254Z,20.61
2018-06-27T04:41:52.796Z,20.61
2018-06-27T04:42:33.323Z,20.67
2018-06-27T04:43:13.926Z,20.79
2018-06-27T04:43:54.388Z,20.92
2018-06-27T04:44:34.917Z,21.16
2018-06-27T04:45:15.442Z,22.02
2018-06-27T04:45:55.970Z,23.25
2018-06-27T04:46:36.493Z,24
2018-06-27T04:47:17.032Z,24.37
2018-06-27T04:47:57.548Z,24.61
2018-06-27T04:48:38.077Z,24.46
2018-06-27T04:49:18.606Z,24.02
2018-06-27T04:49:59.135Z,23.43
2018-06-27T04:50:39.645Z,22.95
2018-06-27T04:51:20.176Z,22.58
2018-06-27T04:52:00.693Z,22.14
2018-06-27T04:52:41.219Z,21.91
2018-06-27T04:53:21.726Z,21.53
2018-06-27T04:54:02.265Z,21.49
2018-06-27T04:54:42.797Z,21.43
2018-06-27T04:55:23.314Z,21.43
2018-06-27T04:56:03.832Z,21.59
2018-06-27T04:56:44.355Z,21.62
2018-06-27T04:57:24.880Z,21.49
2018-06-27T04:58:05.406Z,21.84
2018-06-27T04:58:45.925Z,22
2018-06-27T04:59:26.451Z,22.17
2018-06-27T05:00:06.971Z,21.91
2018-06-27T05:00:47.501Z,21.86
2018-06-27T05:01:28.019Z,21.72
2018-06-27T05:02:08.533Z,21.59
2018-06-27T05:02:49.072Z,21.61
2018-06-27T05:03:29.580Z,21.61
2018-06-27T05:04:10.120Z,21.68
2018-06-27T05:04:50.649Z,21.67
2018-06-27T05:05:31.173Z,21.74
2018-06-27T05:06:11.696Z,21.68
2018-06-27T05:06:52.256Z,21.77
2018-06-27T05:07:32.782Z,21.62
2018-06-27T05:08:13.249Z,21.64
2018-06-27T05:08:53.715Z,21.49
2018-06-27T05:09:34.203Z,21.47
2018-06-27T05:10:14.730Z,21.64
2018-06-27T05:10:55.178Z,21.5
2018-06-27T05:11:35.718Z,21.34
2018-06-27T05:12:16.261Z,21.4
2018-06-27T05:14:18.871Z,21.43
2018-06-27T05:16:09.947Z,21.28
2018-06-27T05:16:50.469Z,21.17
2018-06-27T05:17:30.956Z,21.13
2018-06-27T05:18:11.466Z,21.1
2018-06-27T05:18:51.941Z,21.31
2018-06-27T05:19:32.426Z,21.96
2018-06-27T05:20:12.947Z,22.33
2018-06-27T05:20:53.475Z,22.67
2018-06-27T05:21:33.978Z,22.54
2018-06-27T05:22:14.518Z,22.07
2018-06-27T05:22:55.037Z,21.91
2018-06-27T05:23:35.545Z,21.94
2018-06-27T05:24:16.069Z,21.82
2018-06-27T05:24:56.596Z,21.74
2018-06-27T05:25:37.097Z,21.79
2018-06-27T05:26:17.586Z,21.72
2018-06-27T05:26:58.097Z,21.47
2018-06-27T05:27:38.801Z,21.64
2018-06-27T05:28:19.205Z,21.86
2018-06-27T05:28:59.665Z,22.67
2018-06-27T05:29:40.202Z,23.55
2018-06-27T05:30:20.739Z,24.22
2018-06-27T05:31:01.270Z,24.08
2018-06-27T05:31:41.835Z,23.63
2018-06-27T05:32:22.360Z,23.05
2018-06-27T05:33:02.863Z,22.64
2018-06-27T05:33:43.381Z,22.39
2018-06-27T05:34:23.909Z,22.33
2018-06-27T05:35:04.441Z,22.28
2018-06-27T05:35:45.203Z,22.25
2018-06-27T05:36:25.728Z,22.15
2018-06-27T05:37:06.224Z,22.1
2018-06-27T05:37:46.739Z,22.03
2018-06-27T05:38:27.251Z,21.92
2018-06-27T05:39:07.804Z,21.8
2018-06-27T05:39:48.319Z,21.74
2018-06-27T05:40:28.850Z,21.72
2018-06-27T05:41:09.373Z,21.82
2018-06-27T05:41:49.900Z,21.82
2018-06-27T05:42:30.425Z,21.83
2018-06-27T05:43:10.940Z,21.75
2018-06-27T05:43:51.469Z,21.86
2018-06-27T05:44:32.000Z,21.72
2018-06-27T05:45:12.501Z,21.67
2018-06-27T05:45:53.042Z,21.61
2018-06-27T05:46:33.593Z,21.56
2018-06-27T05:47:14.139Z,21.5
2018-06-27T05:47:54.660Z,21.61
2018-06-27T05:48:35.178Z,21.53
2018-06-27T05:49:15.697Z,21.61
2018-06-27T05:49:56.217Z,21.54
2018-06-27T05:50:36.756Z,21.52
2018-06-27T05:51:17.258Z,21.42
2018-06-27T05:51:57.781Z,21.31
2018-06-27T05:52:38.318Z,21.34
2018-06-27T05:53:18.901Z,21.4
2018-06-27T05:53:59.337Z,21.38
2018-06-27T05:54:39.841Z,21.46
2018-06-27T05:55:20.358Z,21.38
2018-06-27T05:56:00.867Z,21.4
2018-06-27T05:56:41.368Z,21.38
2018-06-27T05:57:21.843Z,21.44
2018-06-27T05:58:02.373Z,21.5
2018-06-27T05:58:42.891Z,21.43
2018-06-27T05:59:23.413Z,21.35
2018-06-27T06:00:03.930Z,21.49
2018-06-27T06:00:44.455Z,21.77
2018-06-27T06:01:24.995Z,21.92
2018-06-27T06:02:05.515Z,22.14
2018-06-27T06:02:46.041Z,22.33
2018-06-27T06:03:26.567Z,22.55
2018-06-27T06:04:07.089Z,22.7
2018-06-27T06:04:47.615Z,22.92
2018-06-27T06:05:28.127Z,23.2
2018-06-27T06:06:08.666Z,23.31
2018-06-27T06:06:49.249Z,23.38
2018-06-27T06:07:29.745Z,23.55
2018-06-27T06:08:10.258Z,23.66
2018-06-27T06:08:50.774Z,23.55
2018-06-27T06:09:31.290Z,23.79
2018-06-27T06:10:11.800Z,24.02
2018-06-27T06:10:52.352Z,24.09
2018-06-27T06:11:33.008Z,24.24
2018-06-27T06:12:13.385Z,24.32
2018-06-27T06:12:53.913Z,24.46
2018-06-27T06:13:34.429Z,24.53
2018-06-27T06:14:14.976Z,24.52
2018-06-27T06:14:55.488Z,24.71
2018-06-27T06:15:35.996Z,24.35
2018-06-27T06:16:16.526Z,24.46
2018-06-27T06:16:57.043Z,24.58
2018-06-27T06:17:37.575Z,24.55
2018-06-27T06:18:18.094Z,24.73
2018-06-27T06:18:58.615Z,24.87
2018-06-27T06:19:39.169Z,24.91
2018-06-27T06:20:19.663Z,25.03
2018-06-27T06:21:00.192Z,24.99
2018-06-27T06:21:40.719Z,24.96
2018-06-27T06:22:21.259Z,25.05
2018-06-27T06:23:01.790Z,25.06
2018-06-27T06:23:42.299Z,25.08
2018-06-27T06:24:22.820Z,25.14
2018-06-27T06:25:03.335Z,25.14
2018-06-27T06:25:43.853Z,25.3
2018-06-27T06:26:24.382Z,25.33
2018-06-27T06:27:04.903Z,25.45
2018-06-27T06:27:45.433Z,25.51
2018-06-27T06:28:25.964Z,25.58
2018-06-27T06:29:06.487Z,25.47
2018-06-27T06:29:47.257Z,25.47
2018-06-27T06:30:27.792Z,25.55
2018-06-27T06:31:08.332Z,25.61
2018-06-27T06:31:48.870Z,25.65
2018-06-27T06:32:29.405Z,25.79
2018-06-27T06:33:09.924Z,25.87
2018-06-27T06:33:50.441Z,25.79
2018-06-27T06:34:30.966Z,25.77
2018-06-27T06:35:11.511Z,25.88
2018-06-27T06:35:52.026Z,25.88
2018-06-27T06:36:32.554Z,25.8
2018-06-27T06:37:13.072Z,25.87
2018-06-27T06:37:53.617Z,25.91
2018-06-27T06:38:34.187Z,25.72
2018-06-27T06:39:14.700Z,25.77
2018-06-27T06:39:55.238Z,25.7
2018-06-27T06:40:35.765Z,25.91
2018-06-27T06:41:16.269Z,25.9
2018-06-27T06:41:56.799Z,25.87
2018-06-27T06:42:37.334Z,25.88
2018-06-27T06:43:17.885Z,25.88
2018-06-27T06:43:58.389Z,25.9
2018-06-27T06:44:38.914Z,25.87
2018-06-27T06:45:19.435Z,25.82
2018-06-27T06:46:00.026Z,25.79
2018-06-27T06:46:40.487Z,25.76
2018-06-27T06:47:20.998Z,25.65
2018-06-27T06:48:01.519Z,25.28
2018-06-27T06:48:42.046Z,25.32
2018-06-27T06:49:22.576Z,25.35
2018-06-27T06:50:03.096Z,25.2
2018-06-27T06:50:43.635Z,25.3
2018-06-27T06:51:24.144Z,25.3
2018-06-27T06:52:04.740Z,25.38
2018-06-27T06:52:45.248Z,25.36
2018-06-27T06:53:25.772Z,25.33
2018-06-27T06:54:06.342Z,25.36
2018-06-27T06:54:46.866Z,25.39
2018-06-27T06:55:27.384Z,25.45
2018-06-27T06:56:07.924Z,25.47
2018-06-27T06:56:48.453Z,25.55
2018-06-27T06:57:29.041Z,25.61
2018-06-27T06:58:09.535Z,25.62
2018-06-27T06:58:50.138Z,25.67
2018-06-27T06:59:30.592Z,25.72
2018-06-27T07:00:11.131Z,25.79
2018-06-27T07:00:51.671Z,25.83
2018-06-27T07:01:32.207Z,25.75
2018-06-27T07:02:12.751Z,25.8
2018-06-27T07:02:53.273Z,25.94
2018-06-27T07:03:33.790Z,25.94
2018-06-27T07:04:14.343Z,25.77
2018-06-27T07:04:54.903Z,25.8
2018-06-27T07:05:35.438Z,25.79
2018-06-27T07:06:15.914Z,25.82
2018-06-27T07:06:56.434Z,25.94
2018-06-27T07:07:36.960Z,25.9
2018-06-27T07:08:17.492Z,25.95
2018-06-27T07:08:58.028Z,25.95
2018-06-27T07:09:38.564Z,25.87
2018-06-27T07:10:19.100Z,25.94
2018-06-27T07:10:59.655Z,26.02
2018-06-27T07:11:40.192Z,26.06
2018-06-27T07:12:20.721Z,26.18
2018-06-27T07:13:01.271Z,26.29
2018-06-27T07:13:41.809Z,26.3
2018-06-27T07:14:22.335Z,26.36
2018-06-27T07:15:02.882Z,26.25
2018-06-27T07:15:43.420Z,26.29
2018-06-27T07:16:23.942Z,26.43
2018-06-27T07:17:04.488Z,26.36
2018-06-27T07:17:45.034Z,26.23
2018-06-27T07:18:25.553Z,26.25
2018-06-27T07:19:06.084Z,26.35
2018-06-27T07:19:46.596Z,26.21
2018-06-27T07:20:27.090Z,26.15
2018-06-27T07:21:07.631Z,26.26
2018-06-27T07:21:48.184Z,26.37
2018-06-27T07:22:28.704Z,26.55
2018-06-27T07:23:09.238Z,26.44
2018-06-27T07:23:49.761Z,26.52
2018-06-27T07:24:30.289Z,26.6
2018-06-27T07:25:10.826Z,26.55
2018-06-27T07:25:51.358Z,26.63
2018-06-27T07:26:31.895Z,26.6
2018-06-27T07:27:12.457Z,26.6
2018-06-27T07:27:52.957Z,26.65
2018-06-27T07:28:33.567Z,26.6
2018-06-27T07:29:14.007Z,26.54
2018-06-27T07:29:54.541Z,26.55
2018-06-27T07:30:35.062Z,26.57
2018-06-27T07:31:15.594Z,26.67
2018-06-27T07:31:56.123Z,26.58
2018-06-27T07:32:36.642Z,26.58
2018-06-27T07:33:17.172Z,26.63
2018-06-27T07:33:57.691Z,26.66
2018-06-27T07:34:38.230Z,26.58
2018-06-27T07:35:18.750Z,26.55
2018-06-27T07:35:59.327Z,26.6
2018-06-27T07:36:39.817Z,26.52
2018-06-27T07:37:20.391Z,26.57
2018-06-27T07:38:00.905Z,26.57
2018-06-27T07:38:41.441Z,26.57
2018-06-27T07:39:22.000Z,26.69
2018-06-27T07:40:02.545Z,26.69
2018-06-27T07:40:43.077Z,26.73
2018-06-27T07:41:23.610Z,26.7
2018-06-27T07:42:04.145Z,26.85
2018-06-27T07:42:44.660Z,26.75
2018-06-27T07:43:25.200Z,26.7
2018-06-27T07:44:05.745Z,26.55
2018-06-27T07:44:46.284Z,26.55
2018-06-27T07:45:26.853Z,26.6
2018-06-27T07:46:07.361Z,26.48
2018-06-27T07:46:47.888Z,26.32
2018-06-27T07:47:28.419Z,26.43
2018-06-27T07:48:08.955Z,26.52
2018-06-27T07:48:49.466Z,26.52
2018-06-27T07:49:29.999Z,26.6
2018-06-27T07:50:10.528Z,26.57
2018-06-27T07:50:51.052Z,26.58
2018-06-27T07:51:31.588Z,26.67
2018-06-27T07:52:12.127Z,26.7
2018-06-27T07:52:52.661Z,26.81
2018-06-27T07:53:33.201Z,26.67
2018-06-27T07:54:13.724Z,26.72
2018-06-27T07:54:54.257Z,26.62
2018-06-27T07:55:34.789Z,26.57
2018-06-27T07:56:15.335Z,26.58
2018-06-27T07:56:55.858Z,26.66
2018-06-27T07:57:36.369Z,26.7
2018-06-27T07:58:16.907Z,26.77
2018-06-27T07:58:57.433Z,26.8
2018-06-27T07:59:37.949Z,26.91
2018-06-27T08:00:18.484Z,26.81
2018-06-27T08:00:59.008Z,26.84
2018-06-27T08:01:39.560Z,26.7
2018-06-27T08:02:20.104Z,26.55
2018-06-27T08:03:00.651Z,26.52
2018-06-27T08:03:41.174Z,26.52
2018-06-27T08:04:21.700Z,26.52
2018-06-27T08:05:02.238Z,26.69
2018-06-27T08:05:42.785Z,26.7
2018-06-27T08:06:23.319Z,26.67
2018-06-27T08:07:03.859Z,26.72
2018-06-27T08:07:44.403Z,26.77
2018-06-27T08:08:24.947Z,26.8
2018-06-27T08:09:05.470Z,26.73
2018-06-27T08:09:46.009Z,26.7
2018-06-27T08:10:26.544Z,26.65
2018-06-27T08:11:07.075Z,26.62
2018-06-27T08:11:47.627Z,26.52
2018-06-27T08:12:28.282Z,26.57
2018-06-27T08:13:08.699Z,26.55
2018-06-27T08:13:49.236Z,26.52
2018-06-27T08:14:29.779Z,26.65
2018-06-27T08:15:10.308Z,26.57
2018-06-27T08:15:51.042Z,26.58
2018-06-27T08:16:31.486Z,26.57
2018-06-27T08:17:12.011Z,26.5
2018-06-27T08:17:52.782Z,26.58
2018-06-27T08:18:33.083Z,26.58
2018-06-27T08:19:13.617Z,26.39
2018-06-27T08:19:54.129Z,26.44
2018-06-27T08:20:34.693Z,26.5
2018-06-27T08:21:15.214Z,26.58
2018-06-27T08:21:55.763Z,26.36
2018-06-27T08:22:36.268Z,26.44
2018-06-27T08:23:16.801Z,26.43
2018-06-27T08:23:57.331Z,26.5
2018-06-27T08:24:37.882Z,26.57
2018-06-27T08:25:18.411Z,26.65
2018-06-27T08:25:59.011Z,26.7
2018-06-27T08:26:39.471Z,26.72
2018-06-27T08:27:20.010Z,26.75
2018-06-27T08:28:00.548Z,26.7
2018-06-27T08:28:41.082Z,26.76
2018-06-27T08:29:21.601Z,26.73
2018-06-27T08:30:02.137Z,26.8
2018-06-27T08:30:42.662Z,26.6
2018-06-27T08:31:23.208Z,26.57
2018-06-27T08:32:03.740Z,26.52
2018-06-27T08:32:44.270Z,26.62
2018-06-27T08:33:24.807Z,26.4
2018-06-27T08:34:05.371Z,26.52
2018-06-27T08:34:45.854Z,26.54
2018-06-27T08:35:26.380Z,26.55
2018-06-27T08:36:06.907Z,26.5
2018-06-27T08:36:47.449Z,26.54
2018-06-27T08:37:27.984Z,26.48
2018-06-27T08:38:08.508Z,26.5
2018-06-27T08:38:49.056Z,26.51
2018-06-27T08:39:29.578Z,26.36
2018-06-27T08:40:10.100Z,26.3
2018-06-27T08:40:50.617Z,26.25
2018-06-27T08:41:31.143Z,26.28
2018-06-27T08:42:11.690Z,26.3
2018-06-27T08:42:52.242Z,26.4
2018-06-27T08:43:32.751Z,26.5
2018-06-27T08:44:13.313Z,26.5
2018-06-27T08:44:53.856Z,26.63
2018-06-27T08:45:34.374Z,26.36
2018-06-27T08:46:14.914Z,26.35
2018-06-27T08:46:55.450Z,26.44
2018-06-27T08:47:35.991Z,26.36